Time;durP1;ratioP1;P1;durP2;ratioP2;P2;SDS_P1;SDS_P2;PMS_P1;PMS_P2;Temp;Humidity;BMP_temperature;BMP_pressure;BME280_temperature;BME280_humidity;BME280_pressure;Samples;Min_cycle;Max_cycle;Signal;HPM_P1;HPM_P2
2023/12/27 00:02:15;;;;;;;8.80;3.10;;;4.80;99.90;;;;;;5096133;28;20486;-79
2023/12/27 00:04:44;;;;;;;16.00;3.10;;;4.80;99.90;;;;;;5096710;28;20448;-79
2023/12/27 00:07:12;;;;;;;12.43;3.13;;;4.80;99.90;;;;;;5096028;28;20622;-78
2023/12/27 00:09:40;;;;;;;6.80;2.30;;;4.80;99.90;;;;;;5097242;28;20932;-79
2023/12/27 00:12:09;;;;;;;5.43;2.60;;;4.80;99.90;;;;;;5095422;28;20443;-79
2023/12/27 00:14:37;;;;;;;11.20;3.30;;;4.80;99.90;;;;;;5094460;28;20531;-75
2023/12/27 00:17:07;;;;;;;8.57;3.17;;;4.80;99.90;;;;;;5096012;28;21001;-78
2023/12/27 00:19:35;;;;;;;9.53;3.03;;;4.70;99.90;;;;;;5095634;28;20971;-77
2023/12/27 00:22:04;;;;;;;10.23;2.70;;;4.70;99.90;;;;;;5096076;28;20444;-77
2023/12/27 00:24:33;;;;;;;10.47;3.00;;;4.70;99.90;;;;;;5096699;28;20543;-78
2023/12/27 00:27:01;;;;;;;7.20;2.80;;;4.70;99.90;;;;;;5097384;28;20471;-78
2023/12/27 00:29:31;;;;;;;11.30;2.90;;;4.70;99.90;;;;;;5096075;28;20472;-77
2023/12/27 00:31:59;;;;;;;9.80;2.80;;;4.70;99.90;;;;;;5095920;28;20502;-78
2023/12/27 00:34:29;;;;;;;9.73;2.30;;;4.70;99.90;;;;;;5095950;28;20839;-77
2023/12/27 00:36:57;;;;;;;8.30;3.60;;;4.70;99.90;;;;;;5095568;28;20470;-77
2023/12/27 00:39:26;;;;;;;8.87;3.20;;;4.70;99.90;;;;;;5095043;28;20510;-78
2023/12/27 00:41:54;;;;;;;7.97;2.80;;;4.70;99.90;;;;;;5096772;28;20440;-78
2023/12/27 00:44:23;;;;;;;9.77;3.10;;;4.70;99.90;;;;;;5095366;28;20972;-78
2023/12/27 00:46:51;;;;;;;6.57;2.50;;;4.60;99.90;;;;;;5096668;28;20509;-77
2023/12/27 00:49:19;;;;;;;10.50;2.90;;;4.60;99.90;;;;;;5097302;28;20938;-78
2023/12/27 00:51:49;;;;;;;8.80;2.73;;;4.60;99.90;;;;;;5096123;28;20503;-78
2023/12/27 00:54:18;;;;;;;6.83;2.30;;;4.60;99.90;;;;;;5097116;28;20464;-78
2023/12/27 00:56:48;;;;;;;9.30;2.80;;;4.60;99.90;;;;;;5097135;28;20448;-78
2023/12/27 00:59:17;;;;;;;8.13;2.90;;;4.60;99.90;;;;;;5095485;28;20459;-77
2023/12/27 01:01:45;;;;;;;8.57;2.80;;;4.60;99.90;;;;;;5095351;28;20455;-78
2023/12/27 01:04:14;;;;;;;8.80;3.33;;;4.60;99.90;;;;;;5095697;28;20971;-78
2023/12/27 01:06:42;;;;;;;8.20;3.23;;;4.50;99.90;;;;;;5095134;28;20817;-77
2023/12/27 01:09:12;;;;;;;11.57;3.13;;;4.50;99.90;;;;;;5095567;28;20869;-78
2023/12/27 01:11:41;;;;;;;11.33;2.87;;;4.50;99.90;;;;;;5095834;28;20842;-79
2023/12/27 01:14:09;;;;;;;5.40;2.60;;;4.50;99.90;;;;;;5096856;28;20467;-77
2023/12/27 01:16:37;;;;;;;6.77;2.60;;;4.50;99.90;;;;;;5096696;28;20965;-77
2023/12/27 01:19:06;;;;;;;6.10;2.33;;;4.50;99.90;;;;;;5095099;28;20463;-78
2023/12/27 01:21:34;;;;;;;8.10;2.90;;;4.50;99.90;;;;;;5095435;28;20447;-76
2023/12/27 01:24:02;;;;;;;7.73;3.23;;;4.50;99.90;;;;;;5093541;28;20793;-77
2023/12/27 01:26:32;;;;;;;8.97;3.33;;;4.50;99.90;;;;;;5093324;28;20456;-78
2023/12/27 01:29:00;;;;;;;6.73;2.50;;;4.40;99.90;;;;;;5093528;28;20452;-76
2023/12/27 01:31:29;;;;;;;9.10;2.50;;;4.40;99.90;;;;;;5093586;28;20453;-76
2023/12/27 01:33:57;;;;;;;10.20;3.30;;;4.40;99.90;;;;;;5097078;28;20467;-78
2023/12/27 01:36:39;;;;;;;7.83;3.17;;;4.40;99.90;;;;;;5094298;28;20471;-77
2023/12/27 01:39:09;;;;;;;6.27;2.47;;;4.40;99.90;;;;;;5094841;28;20458;-78
2023/12/27 01:41:39;;;;;;;8.70;3.13;;;4.40;99.90;;;;;;5094740;28;20440;-78
2023/12/27 01:44:07;;;;;;;7.70;2.57;;;4.40;99.90;;;;;;5094363;28;20494;-78
2023/12/27 01:46:35;;;;;;;8.82;2.70;;;4.30;99.90;;;;;;5094801;28;20442;-78
2023/12/27 01:49:04;;;;;;;9.40;3.43;;;4.30;99.90;;;;;;5095925;28;20183;-77
2023/12/27 01:51:33;;;;;;;11.60;3.23;;;4.40;99.90;;;;;;5094622;28;20449;-78
2023/12/27 01:54:02;;;;;;;8.13;2.30;;;4.30;99.90;;;;;;5094515;28;20472;-78
2023/12/27 01:56:30;;;;;;;6.80;3.37;;;4.30;99.90;;;;;;5094763;28;21056;-78
2023/12/27 01:59:00;;;;;;;9.73;2.87;;;4.30;99.90;;;;;;5094842;28;20444;-77
2023/12/27 02:01:29;;;;;;;11.27;2.60;;;4.20;99.90;;;;;;5094261;28;20437;-78
2023/12/27 02:03:57;;;;;;;7.93;2.67;;;4.20;99.90;;;;;;5094524;28;20536;-78
2023/12/27 02:09:58;;;;;;;9.03;2.40;;;4.20;99.90;;;;;;5095518;28;20436;-78
2023/12/27 02:12:30;;;;;;;11.33;3.10;;;4.10;99.90;;;;;;5094434;28;20447;-79
2023/12/27 02:15:00;;;;;;;7.80;2.77;;;4.10;99.90;;;;;;5094844;28;20465;-77
2023/12/27 02:17:29;;;;;;;8.33;2.40;;;4.10;99.90;;;;;;5095841;28;20958;-78
2023/12/27 02:19:59;;;;;;;9.93;3.97;;;4.10;99.90;;;;;;5094516;28;20516;-77
2023/12/27 02:22:29;;;;;;;9.33;2.73;;;4.10;99.90;;;;;;5094259;28;20436;-78
2023/12/27 02:24:59;;;;;;;6.77;2.27;;;4.10;99.90;;;;;;5097725;28;20456;-77
2023/12/27 02:27:27;;;;;;;7.30;2.60;;;4.10;99.90;;;;;;5098431;28;20470;-78
2023/12/27 02:29:55;;;;;;;14.40;4.03;;;4.10;99.90;;;;;;5098462;28;20513;-78
2023/12/27 02:32:25;;;;;;;8.80;2.43;;;4.10;99.90;;;;;;5099594;28;20469;-77
2023/12/27 02:34:54;;;;;;;12.90;3.23;;;4.10;99.90;;;;;;5099945;28;20468;-76
2023/12/27 02:37:22;;;;;;;13.10;3.10;;;4.10;99.90;;;;;;5098289;28;20460;-78
2023/12/27 02:39:52;;;;;;;7.13;2.77;;;4.10;99.90;;;;;;5099813;28;20933;-77
2023/12/27 02:42:21;;;;;;;7.40;2.97;;;4.10;99.90;;;;;;5099136;28;20444;-79
2023/12/27 02:44:49;;;;;;;8.43;2.93;;;4.10;99.90;;;;;;5098201;28;20545;-78
2023/12/27 02:47:18;;;;;;;7.20;2.77;;;4.10;99.90;;;;;;5099524;28;20460;-79
2023/12/27 02:49:46;;;;;;;7.40;2.53;;;4.20;99.90;;;;;;5098403;28;20948;-78
2023/12/27 02:52:15;;;;;;;9.00;2.40;;;4.20;99.90;;;;;;5098823;28;20455;-78
2023/12/27 02:54:43;;;;;;;7.17;2.40;;;4.20;99.90;;;;;;5100581;28;20533;-78
2023/12/27 02:57:12;;;;;;;5.73;2.57;;;4.20;99.90;;;;;;5098968;28;20476;-79
2023/12/27 02:59:42;;;;;;;7.20;2.47;;;4.20;99.90;;;;;;5099018;28;20953;-78
2023/12/27 03:02:10;;;;;;;10.80;3.30;;;4.20;99.90;;;;;;5098836;28;20444;-78
2023/12/27 03:04:38;;;;;;;7.47;2.30;;;4.20;99.90;;;;;;5099691;28;20437;-77
2023/12/27 03:07:07;;;;;;;9.60;2.47;;;4.10;99.90;;;;;;5099697;28;20452;-78
2023/12/27 03:09:36;;;;;;;10.37;4.27;;;4.10;99.90;;;;;;5099589;28;20945;-78
2023/12/27 03:12:05;;;;;;;8.00;2.50;;;4.10;99.90;;;;;;5098780;28;20877;-78
2023/12/27 03:14:33;;;;;;;8.90;2.80;;;4.10;99.90;;;;;;5098368;28;20506;-78
2023/12/27 03:17:03;;;;;;;8.77;2.67;;;4.10;99.90;;;;;;5098065;28;20474;-77
2023/12/27 03:19:32;;;;;;;5.20;2.50;;;4.10;99.90;;;;;;5098062;28;20953;-78
2023/12/27 03:22:00;;;;;;;8.50;2.17;;;4.10;99.90;;;;;;5097682;28;20433;-78
2023/12/27 03:24:28;;;;;;;9.53;3.07;;;4.10;99.90;;;;;;5098124;28;20441;-78
2023/12/27 03:26:56;;;;;;;4.97;1.80;;;4.10;99.90;;;;;;5095667;28;20468;-76
2023/12/27 03:29:25;;;;;;;5.27;2.13;;;4.00;99.90;;;;;;5095803;28;20445;-76
2023/12/27 03:31:53;;;;;;;7.53;2.50;;;4.00;99.90;;;;;;5095470;28;20474;-76
2023/12/27 03:34:23;;;;;;;7.13;2.70;;;4.00;99.90;;;;;;5094357;28;20469;-77
2023/12/27 03:36:51;;;;;;;5.73;2.77;;;4.00;99.90;;;;;;5095136;28;20459;-77
2023/12/27 03:39:19;;;;;;;7.10;2.87;;;4.00;99.90;;;;;;5096704;28;20440;-77
2023/12/27 03:41:48;;;;;;;7.43;2.47;;;3.90;99.90;;;;;;5095145;28;20448;-77
2023/12/27 03:44:16;;;;;;;8.47;2.73;;;3.90;99.90;;;;;;5096408;28;20437;-77
2023/12/27 03:46:45;;;;;;;11.67;3.00;;;3.90;99.90;;;;;;5095149;28;20494;-77
2023/12/27 03:49:13;;;;;;;5.00;2.07;;;3.90;99.90;;;;;;5095226;28;20506;-77
2023/12/27 03:51:43;;;;;;;9.43;3.60;;;3.90;99.90;;;;;;5095097;28;20444;-77
2023/12/27 03:54:11;;;;;;;6.97;2.97;;;3.80;99.90;;;;;;5094852;28;20495;-77
2023/12/27 03:56:43;;;;;;;9.43;2.73;;;3.90;99.90;;;;;;5094747;28;20474;-77
2023/12/27 03:59:12;;;;;;;6.30;2.60;;;3.80;99.90;;;;;;5094917;28;20444;-77
2023/12/27 04:01:40;;;;;;;7.37;2.77;;;3.80;99.90;;;;;;5094763;28;20451;-77
2023/12/27 04:04:10;;;;;;;9.87;2.80;;;3.80;99.90;;;;;;5094714;28;20941;-77
2023/12/27 04:06:38;;;;;;;10.33;3.00;;;3.70;99.90;;;;;;5094715;28;20571;-77
2023/12/27 04:09:08;;;;;;;8.13;2.30;;;3.70;99.90;;;;;;5094815;28;20448;-77
2023/12/27 04:11:44;;;;;;;5.27;2.10;;;3.70;99.90;;;;;;5094439;28;20546;-76
2023/12/27 04:14:15;;;;;;;11.37;3.70;;;3.70;99.90;;;;;;5094489;28;20436;-76
2023/12/27 04:16:43;;;;;;;9.57;2.90;;;3.70;99.90;;;;;;5094547;28;20475;-76
2023/12/27 04:19:12;;;;;;;5.43;2.43;;;3.60;99.90;;;;;;5095042;28;20448;-77
2023/12/27 04:21:41;;;;;;;11.07;6.23;;;3.60;99.90;;;;;;5094478;28;20977;-76
2023/12/27 04:24:11;;;;;;;8.80;3.13;;;3.70;99.90;;;;;;5095859;28;20444;-76
2023/12/27 04:26:40;;;;;;;9.23;3.73;;;3.60;99.90;;;;;;5094996;28;20464;-77
2023/12/27 04:29:09;;;;;;;7.50;2.93;;;3.60;99.90;;;;;;5097546;28;20921;-78
2023/12/27 04:31:38;;;;;;;6.00;2.97;;;3.50;99.90;;;;;;5095469;28;20813;-77
2023/12/27 04:34:07;;;;;;;10.03;3.00;;;3.50;99.90;;;;;;5095382;28;20451;-77
2023/12/27 04:36:37;;;;;;;6.63;2.87;;;3.50;99.90;;;;;;5095456;28;20479;-78
2023/12/27 04:39:06;;;;;;;6.87;3.10;;;3.40;99.90;;;;;;5095711;28;20508;-77
2023/12/27 04:41:36;;;;;;;8.43;3.10;;;3.40;99.90;;;;;;5094876;28;20445;-78
2023/12/27 04:44:04;;;;;;;7.80;2.80;;;3.40;99.90;;;;;;5094986;28;20448;-77
2023/12/27 04:46:33;;;;;;;9.67;3.30;;;3.40;99.90;;;;;;5094843;28;20480;-77
2023/12/27 04:49:03;;;;;;;8.37;3.00;;;3.40;99.90;;;;;;5095079;28;20452;-77
2023/12/27 04:51:32;;;;;;;10.40;3.17;;;3.40;99.90;;;;;;5095049;28;20447;-78
2023/12/27 04:54:01;;;;;;;8.47;2.87;;;3.40;99.90;;;;;;5096733;28;20432;-78
2023/12/27 04:56:30;;;;;;;8.20;2.90;;;3.30;99.90;;;;;;5094795;28;20471;-77
2023/12/27 04:59:00;;;;;;;7.70;3.30;;;3.30;99.90;;;;;;5095180;28;20448;-78
2023/12/27 05:01:28;;;;;;;11.47;4.17;;;3.30;99.90;;;;;;5096839;28;20461;-78
2023/12/27 05:03:56;;;;;;;8.60;3.57;;;3.30;99.90;;;;;;5094858;28;20452;-77
2023/12/27 05:06:25;;;;;;;11.60;3.60;;;3.30;99.90;;;;;;5094917;28;20464;-78
2023/12/27 05:08:53;;;;;;;7.93;3.57;;;3.30;99.90;;;;;;5094944;28;20451;-77
2023/12/27 05:11:23;;;;;;;8.03;3.63;;;3.30;99.90;;;;;;5094883;28;20448;-77
2023/12/27 05:13:51;;;;;;;10.93;3.20;;;3.20;99.90;;;;;;5094811;28;20441;-78
2023/12/27 05:16:21;;;;;;;4.70;2.50;;;3.20;99.90;;;;;;5095799;28;20489;-78
2023/12/27 05:18:49;;;;;;;13.63;3.60;;;3.20;99.90;;;;;;5094782;28;20474;-78
2023/12/27 05:21:19;;;;;;;12.13;3.83;;;3.20;99.90;;;;;;5094530;28;20448;-77
2023/12/27 05:23:48;;;;;;;11.93;3.80;;;3.20;99.90;;;;;;5094673;28;20466;-78
2023/12/27 05:26:16;;;;;;;8.50;4.10;;;3.20;99.90;;;;;;5094582;28;20997;-78
2023/12/27 05:28:44;;;;;;;8.63;3.90;;;3.20;99.90;;;;;;5095918;28;20478;-78
2023/12/27 05:31:13;;;;;;;11.63;4.40;;;3.20;99.90;;;;;;5095602;28;20527;-78
2023/12/27 05:33:43;;;;;;;9.17;3.97;;;3.20;99.90;;;;;;5094303;28;20535;-78
2023/12/27 05:36:11;;;;;;;7.03;3.70;;;3.20;99.90;;;;;;5094108;28;20480;-78
2023/12/27 05:38:40;;;;;;;7.73;3.43;;;3.20;99.90;;;;;;5094031;28;20821;-77
2023/12/27 05:41:08;;;;;;;10.97;4.53;;;3.10;99.90;;;;;;5094052;28;20452;-77
2023/12/27 05:43:37;;;;;;;6.93;4.20;;;3.20;99.90;;;;;;5094306;28;20428;-78
2023/12/27 05:46:05;;;;;;;9.37;4.20;;;3.20;99.90;;;;;;5094163;28;20852;-78
2023/12/27 05:48:33;;;;;;;9.60;3.93;;;3.10;99.90;;;;;;5093973;28;20968;-78
2023/12/27 05:51:03;;;;;;;11.63;5.00;;;3.10;99.90;;;;;;5095116;28;20535;-78
2023/12/27 05:53:32;;;;;;;10.70;4.43;;;3.10;99.90;;;;;;5094227;28;20506;-78
2023/12/27 05:56:00;;;;;;;10.20;4.90;;;3.10;99.90;;;;;;5095501;28;20501;-78
2023/12/27 05:58:29;;;;;;;7.30;4.33;;;3.10;99.90;;;;;;5093416;28;20448;-78
2023/12/27 06:00:57;;;;;;;11.03;5.60;;;3.10;99.90;;;;;;5094113;28;20444;-77
2023/12/27 06:03:26;;;;;;;10.87;5.33;;;3.10;99.90;;;;;;5094389;28;20483;-78
2023/12/27 06:05:54;;;;;;;9.93;4.90;;;3.10;99.90;;;;;;5094153;28;20486;-77
2023/12/27 06:08:24;;;;;;;7.20;4.37;;;3.10;99.90;;;;;;5094024;28;20453;-78
2023/12/27 06:10:52;;;;;;;12.77;5.30;;;3.00;99.90;;;;;;5094240;28;20444;-78
2023/12/27 06:13:20;;;;;;;7.90;4.77;;;3.00;99.90;;;;;;5094409;28;20470;-78
2023/12/27 06:15:48;;;;;;;7.07;5.50;;;3.00;99.90;;;;;;5094094;28;20467;-78
2023/12/27 06:18:17;;;;;;;8.80;6.00;;;3.00;99.90;;;;;;5095544;28;20454;-78
2023/12/27 06:20:45;;;;;;;10.57;5.90;;;3.00;99.90;;;;;;5095202;28;20894;-78
2023/12/27 06:23:13;;;;;;;7.70;5.13;;;3.00;99.90;;;;;;5095169;28;20942;-78
2023/12/27 06:25:43;;;;;;;10.10;5.80;;;2.90;99.90;;;;;;5096111;28;20853;-78
2023/12/27 06:28:11;;;;;;;9.67;5.53;;;3.00;99.90;;;;;;5095672;28;20452;-78
2023/12/27 06:30:40;;;;;;;10.07;5.10;;;2.90;99.90;;;;;;5095438;28;20427;-78
2023/12/27 06:33:08;;;;;;;6.67;5.30;;;2.90;99.90;;;;;;5094645;28;20456;-78
2023/12/27 06:35:37;;;;;;;10.93;6.13;;;2.90;99.90;;;;;;5094091;28;20452;-77
2023/12/27 06:38:05;;;;;;;10.27;4.20;;;2.90;99.90;;;;;;5095690;28;20467;-77
2023/12/27 06:40:33;;;;;;;8.70;5.00;;;2.90;99.90;;;;;;5094399;28;20455;-77
2023/12/27 06:43:03;;;;;;;6.20;5.37;;;2.90;99.90;;;;;;5094670;28;20991;-77
2023/12/27 06:45:31;;;;;;;6.67;4.53;;;2.90;99.90;;;;;;5094376;28;20466;-77
2023/12/27 06:48:02;;;;;;;18.47;8.40;;;2.90;99.90;;;;;;5093131;28;20898;-76
2023/12/27 06:50:31;;;;;;;17.93;9.97;;;2.90;99.90;;;;;;5093618;28;20444;-77
2023/12/27 06:52:59;;;;;;;19.27;13.50;;;2.90;99.90;;;;;;5093847;28;20449;-77
2023/12/27 06:55:27;;;;;;;16.37;12.27;;;2.90;99.90;;;;;;5093579;28;20444;-77
2023/12/27 06:57:55;;;;;;;13.33;8.90;;;2.90;99.90;;;;;;5093412;28;20472;-77
2023/12/27 07:00:25;;;;;;;13.60;7.63;;;2.90;99.90;;;;;;5093180;28;20808;-77
2023/12/27 07:02:54;;;;;;;13.10;8.43;;;2.90;99.90;;;;;;5095147;28;20471;-77
2023/12/27 07:05:22;;;;;;;11.30;8.43;;;2.90;99.90;;;;;;5093520;28;20440;-77
2023/12/27 07:07:50;;;;;;;16.47;7.90;;;2.90;99.90;;;;;;5093426;28;20468;-77
2023/12/27 07:10:19;;;;;;;13.47;7.07;;;2.90;99.90;;;;;;5095957;28;20451;-77
2023/12/27 07:12:47;;;;;;;10.37;5.60;;;2.90;99.90;;;;;;5097050;28;20475;-77
2023/12/27 07:15:14;;;;;;;7.00;5.20;;;2.90;99.90;;;;;;5097014;28;20440;-76
2023/12/27 07:17:44;;;;;;;15.47;5.80;;;2.90;99.90;;;;;;5097052;28;21042;-76
2023/12/27 07:20:13;;;;;;;11.00;5.73;;;2.90;99.90;;;;;;5096903;28;20444;-77
2023/12/27 07:22:41;;;;;;;10.17;6.80;;;2.90;99.90;;;;;;5097492;28;20448;-78
2023/12/27 07:25:10;;;;;;;13.07;5.07;;;2.90;99.90;;;;;;5096149;28;20454;-77
2023/12/27 07:27:39;;;;;;;12.20;6.87;;;3.00;99.90;;;;;;5096033;28;20464;-76
2023/12/27 07:30:08;;;;;;;19.83;9.10;;;2.90;99.90;;;;;;5097366;28;20467;-76
2023/12/27 07:32:37;;;;;;;8.80;6.13;;;3.00;99.90;;;;;;5095997;28;20546;-76
2023/12/27 07:35:07;;;;;;;7.90;5.97;;;3.00;99.90;;;;;;5097424;28;20961;-77
2023/12/27 07:37:35;;;;;;;7.70;5.43;;;3.00;99.90;;;;;;5097443;28;20471;-77
2023/12/27 07:40:04;;;;;;;9.20;6.00;;;2.90;99.90;;;;;;5095796;28;20876;-78
2023/12/27 07:42:32;;;;;;;9.87;5.73;;;3.00;99.90;;;;;;5096028;28;20448;-78
2023/12/27 07:45:01;;;;;;;9.50;6.40;;;3.00;99.90;;;;;;5097787;28;20803;-78
2023/12/27 07:47:29;;;;;;;12.90;6.67;;;3.00;99.90;;;;;;5098253;28;20996;-78
2023/12/27 07:49:58;;;;;;;12.07;5.87;;;3.00;99.90;;;;;;5098808;28;20444;-78
2023/12/27 07:52:28;;;;;;;11.40;5.63;;;3.00;99.90;;;;;;5097655;28;20503;-78
2023/12/27 07:54:58;;;;;;;16.13;10.40;;;3.00;99.90;;;;;;5099504;28;20442;-78
2023/12/27 07:57:26;;;;;;;22.10;11.77;;;3.00;99.90;;;;;;5097284;28;20562;-79
2023/12/27 07:59:57;;;;;;;12.80;8.40;;;3.10;99.90;;;;;;5099332;28;20434;-78
2023/12/27 08:02:26;;;;;;;7.50;5.20;;;3.00;99.90;;;;;;5097572;28;20450;-78
2023/12/27 08:04:54;;;;;;;10.53;5.30;;;3.00;99.90;;;;;;5097589;28;20448;-78
2023/12/27 08:07:22;;;;;;;11.97;5.13;;;3.10;99.90;;;;;;5097496;28;20484;-78
2023/12/27 08:09:52;;;;;;;11.43;7.40;;;3.10;99.90;;;;;;5098026;28;20448;-79
2023/12/27 08:12:20;;;;;;;7.80;6.30;;;3.00;99.90;;;;;;5103857;28;20447;-79
2023/12/27 08:14:48;;;;;;;11.03;5.60;;;3.10;99.90;;;;;;5105639;28;20432;-78
2023/12/27 08:17:17;;;;;;;8.17;5.50;;;3.10;99.90;;;;;;5103957;28;20467;-79
2023/12/27 08:19:45;;;;;;;10.20;6.10;;;3.00;99.90;;;;;;5103441;28;20452;-79
2023/12/27 08:22:14;;;;;;;9.53;6.20;;;3.10;99.90;;;;;;5102776;28;20475;-78
2023/12/27 08:24:42;;;;;;;12.00;7.90;;;3.10;99.90;;;;;;5103337;28;20462;-78
2023/12/27 08:27:12;;;;;;;8.67;6.27;;;3.10;99.90;;;;;;5102650;28;20832;-78
2023/12/27 08:29:41;;;;;;;11.23;6.60;;;3.10;99.90;;;;;;5098300;28;20444;-78
2023/12/27 08:32:09;;;;;;;13.47;6.30;;;3.10;99.90;;;;;;5096906;28;20457;-78
2023/12/27 08:34:37;;;;;;;19.00;10.43;;;3.10;99.90;;;;;;5096958;28;20475;-78
2023/12/27 08:37:06;;;;;;;12.57;8.37;;;3.10;99.90;;;;;;5097000;28;21008;-78
2023/12/27 08:39:34;;;;;;;16.03;6.87;;;3.10;99.90;;;;;;5096603;28;20455;-78
2023/12/27 08:42:03;;;;;;;11.30;6.70;;;3.10;99.90;;;;;;5099142;28;20444;-79
2023/12/27 08:44:34;;;;;;;14.00;6.90;;;3.20;99.90;;;;;;5098534;28;20448;-78
2023/12/27 08:47:03;;;;;;;10.80;6.20;;;3.20;99.90;;;;;;5098047;28;20479;-78
2023/12/27 08:49:32;;;;;;;11.30;7.53;;;3.20;99.90;;;;;;5098249;28;20441;-78
2023/12/27 08:52:00;;;;;;;11.07;7.10;;;3.20;99.90;;;;;;5098845;28;20440;-78
2023/12/27 08:54:28;;;;;;;12.13;7.33;;;3.20;99.90;;;;;;5097909;28;20451;-78
2023/12/27 08:56:57;;;;;;;13.23;7.43;;;3.30;99.90;;;;;;5097139;28;20563;-78
2023/12/27 08:59:26;;;;;;;12.03;7.00;;;3.30;99.90;;;;;;5097161;28;20432;-77
2023/12/27 09:01:55;;;;;;;8.83;6.50;;;3.40;99.90;;;;;;5096144;28;21008;-77
2023/12/27 09:04:24;;;;;;;10.70;6.83;;;3.30;99.90;;;;;;5096097;28;20451;-78
2023/12/27 09:06:53;;;;;;;10.63;7.00;;;3.30;99.90;;;;;;5095934;28;20504;-78
2023/12/27 09:09:22;;;;;;;9.20;7.33;;;3.40;99.90;;;;;;5096013;28;20435;-78
2023/12/27 09:11:51;;;;;;;10.17;7.37;;;3.40;99.90;;;;;;5095658;28;20455;-77
2023/12/27 09:14:19;;;;;;;12.10;8.37;;;3.40;99.90;;;;;;5095999;28;20535;-77
2023/12/27 09:16:47;;;;;;;12.83;7.70;;;3.50;99.90;;;;;;5095329;28;20468;-77
2023/12/27 09:19:17;;;;;;;13.03;6.53;;;3.50;99.90;;;;;;5095159;28;20468;-78
2023/12/27 09:21:46;;;;;;;10.37;7.90;;;3.50;99.90;;;;;;5096774;28;20447;-78
2023/12/27 09:24:15;;;;;;;13.77;9.80;;;3.50;99.90;;;;;;5095396;28;20531;-78
2023/12/27 09:26:43;;;;;;;12.63;8.90;;;3.60;99.90;;;;;;5094872;28;20460;-78
2023/12/27 09:29:11;;;;;;;16.90;10.00;;;3.60;99.90;;;;;;5097203;28;20432;-78
2023/12/27 09:31:41;;;;;;;16.30;8.63;;;3.60;99.90;;;;;;5095154;28;20452;-78
2023/12/27 09:34:09;;;;;;;12.40;8.70;;;3.70;99.90;;;;;;5095282;28;20480;-78
2023/12/27 09:36:39;;;;;;;10.37;7.70;;;3.70;99.90;;;;;;5094792;28;20559;-77
2023/12/27 09:39:10;;;;;;;10.63;7.13;;;3.70;99.90;;;;;;5095716;28;20471;-77
2023/12/27 09:41:38;;;;;;;13.20;8.30;;;3.70;99.90;;;;;;5094840;28;20451;-77
2023/12/27 09:44:08;;;;;;;13.47;8.00;;;3.70;99.90;;;;;;5094796;28;20487;-77
2023/12/27 09:46:37;;;;;;;16.77;7.87;;;3.70;99.90;;;;;;5094676;28;20482;-78
2023/12/27 09:49:06;;;;;;;7.90;6.83;;;3.80;99.90;;;;;;5094978;28;20972;-78
2023/12/27 09:51:35;;;;;;;9.90;6.60;;;3.80;99.90;;;;;;5096346;28;21016;-77
2023/12/27 09:54:05;;;;;;;12.67;7.53;;;3.90;99.90;;;;;;5094754;28;21038;-78
2023/12/27 09:56:33;;;;;;;14.77;7.77;;;3.80;99.90;;;;;;5094458;28;20472;-78
2023/12/27 09:59:07;;;;;;;12.50;7.50;;;3.90;99.90;;;;;;5094778;28;20472;-78
2023/12/27 10:01:40;;;;;;;11.23;8.27;;;3.90;99.90;;;;;;5094834;28;20436;-77
2023/12/27 10:04:25;;;;;;;14.40;7.50;;;3.90;99.90;;;;;;5094685;28;20432;-78
2023/12/27 10:06:54;;;;;;;12.20;6.87;;;4.00;99.90;;;;;;5094487;28;20463;-77
2023/12/27 10:09:24;;;;;;;10.13;5.83;;;4.00;99.90;;;;;;5094348;28;20456;-78
2023/12/27 10:11:54;;;;;;;9.33;6.73;;;4.00;99.90;;;;;;5094930;28;20926;-76
2023/12/27 10:14:25;;;;;;;18.90;8.23;;;4.10;99.90;;;;;;5094738;28;20522;-78
2023/12/27 10:16:54;;;;;;;15.33;8.13;;;4.00;99.90;;;;;;5094698;28;20464;-77
2023/12/27 10:19:39;;;;;;;10.37;6.77;;;4.10;99.90;;;;;;5094709;28;20542;-78
2023/12/27 10:22:08;;;;;;;15.50;7.37;;;4.10;99.90;;;;;;5094568;28;20432;-77
2023/12/27 10:24:39;;;;;;;10.83;7.17;;;4.20;99.90;;;;;;5094609;28;21023;-78
2023/12/27 10:27:08;;;;;;;9.43;7.00;;;4.20;99.90;;;;;;5094582;28;20475;-78
2023/12/27 10:29:38;;;;;;;9.47;6.70;;;4.30;99.90;;;;;;5097655;28;20436;-77
2023/12/27 10:32:07;;;;;;;13.80;7.30;;;4.30;99.90;;;;;;5095341;28;20444;-76
2023/12/27 10:34:38;;;;;;;12.43;7.40;;;4.30;99.90;;;;;;5094566;28;20786;-78
2023/12/27 10:37:11;;;;;;;9.70;6.97;;;4.30;99.90;;;;;;5094376;28;21076;-77
2023/12/27 10:39:45;;;;;;;11.57;6.53;;;4.30;99.90;;;;;;5096214;28;20452;-77
2023/12/27 10:42:16;;;;;;;13.00;7.50;;;4.40;99.90;;;;;;5094327;28;20460;-77
2023/12/27 10:44:46;;;;;;;12.00;6.30;;;4.40;99.90;;;;;;5097435;28;20428;-78
2023/12/27 10:47:18;;;;;;;10.30;6.23;;;4.40;99.90;;;;;;5098399;28;20508;-77
2023/12/27 10:49:48;;;;;;;11.20;6.07;;;4.40;99.90;;;;;;5099078;28;20464;-77
2023/12/27 10:52:18;;;;;;;11.27;6.07;;;4.40;99.90;;;;;;5100131;28;20439;-78
2023/12/27 10:54:51;;;;;;;12.47;5.87;;;4.40;99.90;;;;;;5098242;28;20525;-77
2023/12/27 10:57:21;;;;;;;8.63;4.93;;;4.50;99.90;;;;;;5098037;28;20464;-78
2023/12/27 10:59:52;;;;;;;9.53;5.10;;;4.50;99.90;;;;;;5098114;28;20464;-77
2023/12/27 11:02:22;;;;;;;9.73;4.83;;;4.60;99.90;;;;;;5099972;28;20432;-78
2023/12/27 11:04:53;;;;;;;6.30;4.73;;;4.60;99.90;;;;;;5098424;28;20914;-77
2023/12/27 11:07:25;;;;;;;7.97;4.50;;;4.60;99.90;;;;;;5098257;28;20934;-77
2023/12/27 11:09:57;;;;;;;10.17;5.03;;;4.60;99.90;;;;;;5098036;28;20490;-78
2023/12/27 11:12:29;;;;;;;9.00;4.50;;;4.60;99.90;;;;;;5098410;28;20436;-78
2023/12/27 11:14:58;;;;;;;12.17;5.40;;;4.70;99.90;;;;;;5098335;28;20459;-78
2023/12/27 11:17:28;;;;;;;10.03;5.07;;;4.70;99.90;;;;;;5097959;28;20472;-77
2023/12/27 11:19:57;;;;;;;10.23;4.33;;;4.80;99.90;;;;;;5098309;28;20455;-77
2023/12/27 11:22:26;;;;;;;6.90;4.60;;;4.80;99.90;;;;;;5097527;28;20455;-78
2023/12/27 11:24:56;;;;;;;8.50;5.03;;;4.80;99.90;;;;;;5098436;28;20452;-78
2023/12/27 11:27:25;;;;;;;8.87;5.33;;;4.90;99.90;;;;;;5097753;28;20464;-78
2023/12/27 11:29:55;;;;;;;8.63;5.17;;;4.90;99.90;;;;;;5098027;28;20475;-78
2023/12/27 11:32:27;;;;;;;10.23;4.93;;;4.90;99.90;;;;;;5098950;28;20843;-77
2023/12/27 11:34:56;;;;;;;10.17;5.20;;;4.90;99.90;;;;;;5097746;28;20814;-78
2023/12/27 11:37:25;;;;;;;9.77;4.77;;;5.00;99.90;;;;;;5097678;28;20464;-77
2023/12/27 11:39:53;;;;;;;8.10;4.63;;;5.00;99.90;;;;;;5097593;28;20467;-78
2023/12/27 11:42:24;;;;;;;8.83;5.10;;;5.00;99.90;;;;;;5097759;28;20472;-78
2023/12/27 11:44:54;;;;;;;10.27;5.70;;;5.00;99.90;;;;;;5097604;28;20437;-78
2023/12/27 11:47:22;;;;;;;11.50;5.47;;;5.10;99.90;;;;;;5099394;28;20452;-77
2023/12/27 11:50:21;;;;;;;13.20;5.37;;;5.10;99.90;;;;;;5097460;28;20445;-78
2023/12/27 11:52:51;;;;;;;8.27;5.00;;;5.10;99.90;;;;;;5098698;28;20433;-78
2023/12/27 11:55:34;;;;;;;10.27;5.50;;;5.10;99.90;;;;;;5096595;28;20441;-78
2023/12/27 11:58:04;;;;;;;10.40;5.97;;;5.20;99.90;;;;;;5097357;28;20473;-77
2023/12/27 12:00:33;;;;;;;13.40;5.77;;;5.20;99.90;;;;;;5099143;28;20467;-78
2023/12/27 12:03:08;;;;;;;10.93;5.93;;;5.20;99.90;;;;;;5098831;28;20544;-78
2023/12/27 12:05:57;;;;;;;14.03;6.03;;;5.20;99.90;;;;;;5098176;28;20490;-78
2023/12/27 12:08:31;;;;;;;9.60;6.00;;;5.30;99.90;;;;;;5098280;28;20440;-78
2023/12/27 12:11:07;;;;;;;13.00;5.30;;;5.20;99.90;;;;;;5097991;28;20431;-78
2023/12/27 12:13:38;;;;;;;14.13;6.03;;;5.30;99.90;;;;;;5097516;28;20440;-78
2023/12/27 12:16:07;;;;;;;10.13;5.90;;;5.30;99.90;;;;;;5097878;28;20522;-78
2023/12/27 12:18:36;;;;;;;16.13;10.33;;;5.30;99.90;;;;;;5100224;28;20429;-78
2023/12/27 12:21:05;;;;;;;14.20;7.60;;;5.40;99.90;;;;;;5099878;28;20436;-78
2023/12/27 12:23:34;;;;;;;17.37;7.50;;;5.40;99.90;;;;;;5099953;28;20441;-78
2023/12/27 12:26:04;;;;;;;14.30;7.40;;;5.40;99.90;;;;;;5098794;28;20456;-78
2023/12/27 12:28:32;;;;;;;11.50;6.33;;;5.40;99.90;;;;;;5098232;28;20453;-78
2023/12/27 12:31:02;;;;;;;11.43;5.70;;;5.50;99.90;;;;;;5098818;28;20814;-78
2023/12/27 12:33:31;;;;;;;7.33;5.80;;;5.50;99.90;;;;;;5098159;28;20453;-78
2023/12/27 12:35:59;;;;;;;13.80;6.40;;;5.50;99.90;;;;;;5098139;28;20456;-78
2023/12/27 12:38:28;;;;;;;8.83;4.83;;;5.50;99.90;;;;;;5097791;28;20456;-78
2023/12/27 12:40:56;;;;;;;11.30;5.53;;;5.50;99.90;;;;;;5099699;28;20537;-78
2023/12/27 12:43:26;;;;;;;9.73;5.50;;;5.50;99.90;;;;;;5097361;28;20443;-78
2023/12/27 12:45:57;;;;;;;14.00;7.23;;;5.50;99.90;;;;;;5096591;28;20463;-77
2023/12/27 12:48:28;;;;;;;9.83;6.40;;;5.60;99.90;;;;;;5097148;28;20444;-78
2023/12/27 12:51:10;;;;;;;11.10;5.53;;;5.50;99.90;;;;;;5098069;28;20802;-78
2023/12/27 12:53:39;;;;;;;9.50;5.07;;;5.60;99.90;;;;;;5099395;28;20819;-78
2023/12/27 12:56:09;;;;;;;7.97;5.73;;;5.60;99.90;;;;;;5097898;28;20991;-78
2023/12/27 12:58:38;;;;;;;11.00;5.90;;;5.50;99.90;;;;;;5097318;28;20950;-78
2023/12/27 13:01:06;;;;;;;16.80;11.40;;;5.60;99.90;;;;;;5098026;28;20873;-78
2023/12/27 13:03:41;;;;;;;9.17;5.10;;;5.50;99.90;;;;;;5097016;28;20451;-78
2023/12/27 13:06:13;;;;;;;11.97;5.90;;;5.60;99.90;;;;;;5096538;28;20460;-78
2023/12/27 13:08:41;;;;;;;11.00;6.80;;;5.60;99.90;;;;;;5096433;28;20815;-77